createdAt,value
2024-01-04T00:00:32.247Z,991.04
2024-01-04T00:01:32.548Z,991.07
2024-01-04T00:02:32.336Z,991.10
2024-01-04T00:03:32.341Z,991.12
2024-01-04T00:04:32.335Z,991.11
2024-01-04T00:05:32.404Z,991.16
2024-01-04T00:06:32.411Z,991.17
2024-01-04T00:07:32.709Z,991.11
2024-01-04T00:08:32.480Z,991.11
2024-01-04T00:09:32.463Z,991.10
2024-01-04T00:10:32.489Z,991.20
2024-01-04T00:11:32.558Z,991.18
2024-01-04T00:12:32.546Z,991.21
2024-01-04T00:13:32.838Z,991.22
2024-01-04T00:14:32.678Z,991.23
2024-01-04T00:15:32.623Z,991.24
2024-01-04T00:16:32.648Z,991.22
2024-01-04T00:17:32.766Z,991.25
2024-01-04T00:18:32.903Z,991.29
2024-01-04T00:19:33.188Z,991.20
2024-01-04T00:20:32.785Z,991.32
2024-01-04T00:21:32.782Z,991.31
2024-01-04T00:23:32.936Z,991.44
2024-01-04T00:25:32.889Z,991.42
2024-01-04T00:26:33.263Z,991.46
2024-01-04T00:27:32.941Z,991.46
2024-01-04T00:28:32.984Z,991.49
2024-01-04T00:29:33.030Z,991.53
2024-01-04T00:30:33.128Z,991.53
2024-01-04T00:31:33.065Z,991.61
2024-01-04T00:32:33.186Z,991.51
2024-01-04T00:33:33.469Z,991.57
2024-01-04T00:34:33.314Z,991.60
2024-01-04T00:35:33.187Z,991.56
2024-01-04T00:36:33.182Z,991.58
2024-01-04T00:37:33.235Z,991.66
2024-01-04T00:38:33.292Z,991.65
2024-01-04T00:39:33.288Z,991.66
2024-01-04T00:40:33.576Z,991.69
2024-01-04T00:41:33.372Z,991.73
2024-01-04T00:42:33.354Z,991.75
2024-01-04T00:43:33.373Z,991.80
2024-01-04T00:44:33.418Z,991.78
2024-01-04T00:45:33.425Z,991.82
2024-01-04T00:46:33.477Z,991.84
2024-01-04T00:47:33.959Z,991.90
2024-01-04T00:48:33.730Z,991.87
2024-01-04T00:49:33.591Z,991.90
2024-01-04T00:50:33.588Z,991.89
2024-01-04T00:52:33.621Z,991.92
2024-01-04T00:53:33.667Z,991.97
2024-01-04T00:54:33.981Z,991.90
2024-01-04T00:55:33.722Z,991.99
2024-01-04T00:56:33.748Z,992.03
2024-01-04T00:57:33.758Z,992.06
2024-01-04T00:58:33.779Z,992.02
2024-01-04T00:59:33.845Z,992.11
2024-01-04T01:00:34.146Z,992.06
2024-01-04T01:01:34.165Z,992.08
2024-01-04T01:02:33.938Z,992.07
2024-01-04T01:03:34.031Z,992.05
2024-01-04T01:04:33.934Z,992.15
2024-01-04T01:05:34.014Z,992.20
2024-01-04T01:06:34.198Z,992.19
2024-01-04T01:07:34.019Z,992.21
2024-01-04T01:08:34.364Z,992.20
2024-01-04T01:09:34.062Z,992.18
2024-01-04T01:10:34.089Z,992.23
2024-01-04T01:11:34.165Z,992.23
2024-01-04T01:12:34.146Z,992.32
2024-01-04T01:13:34.191Z,992.32
2024-01-04T01:14:34.255Z,992.38
2024-01-04T01:15:34.555Z,992.35
2024-01-04T01:16:34.253Z,992.39
2024-01-04T01:17:34.433Z,992.39
2024-01-04T01:18:34.358Z,992.43
2024-01-04T01:19:34.403Z,992.46
2024-01-04T01:20:34.410Z,992.46
2024-01-04T01:21:34.395Z,992.48
2024-01-04T01:22:34.725Z,992.50
2024-01-04T01:23:34.486Z,992.55
2024-01-04T01:25:34.497Z,992.58
2024-01-04T01:26:34.542Z,992.58
2024-01-04T01:27:34.664Z,992.62
2024-01-04T01:28:34.600Z,992.58
2024-01-04T01:29:34.966Z,992.63
2024-01-04T01:31:35.058Z,992.72
2024-01-04T01:32:34.797Z,992.69
2024-01-04T01:33:35.142Z,992.72
2024-01-04T01:35:35.016Z,992.76
2024-01-04T01:37:34.820Z,992.82
2024-01-04T01:38:34.859Z,992.77
2024-01-04T01:39:34.871Z,992.81
2024-01-04T01:40:34.898Z,992.84
2024-01-04T01:41:34.941Z,992.86
2024-01-04T01:42:34.970Z,992.91
2024-01-04T01:43:35.308Z,992.93
2024-01-04T01:44:35.021Z,992.95
2024-01-04T01:45:35.082Z,992.95
2024-01-04T01:46:35.086Z,992.96
2024-01-04T01:47:35.150Z,993.01
2024-01-04T01:48:35.476Z,993.03
2024-01-04T01:49:35.278Z,992.96
2024-01-04T01:50:35.490Z,993.03
2024-01-04T01:51:35.189Z,993.03
2024-01-04T01:52:35.217Z,993.07
2024-01-04T01:55:35.302Z,993.17
2024-01-04T01:56:35.663Z,993.13
2024-01-04T01:57:35.358Z,993.13
2024-01-04T01:58:35.483Z,993.14
2024-01-04T01:59:35.444Z,993.17
2024-01-04T02:01:35.461Z,993.27
2024-01-04T02:02:35.820Z,993.24
2024-01-04T02:03:35.681Z,993.29
2024-01-04T02:04:35.571Z,993.27
2024-01-04T02:05:35.701Z,993.31
2024-01-04T02:06:35.743Z,993.28
2024-01-04T02:07:35.635Z,993.33
2024-01-04T02:08:35.996Z,993.36
2024-01-04T02:09:35.674Z,993.44
2024-01-04T02:10:35.720Z,993.46
2024-01-04T02:12:35.760Z,993.48
2024-01-04T02:13:35.789Z,993.46
2024-01-04T02:14:35.849Z,993.52
2024-01-04T02:15:36.178Z,993.55
2024-01-04T02:17:36.095Z,993.53
2024-01-04T02:18:36.043Z,993.59
2024-01-04T02:20:36.000Z,993.61
2024-01-04T02:21:35.998Z,993.61
2024-01-04T02:22:36.336Z,993.64
2024-01-04T02:23:36.121Z,993.79
2024-01-04T02:24:36.105Z,993.78
2024-01-04T02:25:36.104Z,993.82
2024-01-04T02:26:36.256Z,993.81
2024-01-04T02:27:36.163Z,993.89
2024-01-04T02:28:36.185Z,993.90
2024-01-04T02:29:36.539Z,994.00
2024-01-04T02:30:36.328Z,993.95
2024-01-04T02:31:36.300Z,993.91
2024-01-04T02:32:36.540Z,993.93
2024-01-04T02:34:36.408Z,993.99
2024-01-04T02:38:36.505Z,994.04
2024-01-04T02:39:36.785Z,994.05
2024-01-04T02:40:36.580Z,994.05
2024-01-04T02:41:36.587Z,994.10
2024-01-04T02:42:36.568Z,994.14
2024-01-04T02:43:36.586Z,994.15
2024-01-04T02:44:36.623Z,994.19
2024-01-04T02:45:36.947Z,994.19
2024-01-04T02:47:36.781Z,994.24
2024-01-04T02:48:36.953Z,994.24
2024-01-04T02:49:36.832Z,994.25
2024-01-04T02:50:36.829Z,994.27
2024-01-04T02:51:37.130Z,994.25
2024-01-04T02:52:36.837Z,994.27
2024-01-04T02:53:36.912Z,994.27
2024-01-04T02:54:36.908Z,994.29
2024-01-04T02:55:36.927Z,994.30
2024-01-04T02:56:37.042Z,994.27
2024-01-04T02:58:37.009Z,994.35
2024-01-04T02:59:37.370Z,994.32
2024-01-04T03:00:37.080Z,994.31
2024-01-04T03:02:37.186Z,994.41
2024-01-04T03:03:37.192Z,994.39
2024-01-04T03:04:37.211Z,994.38
2024-01-04T03:05:37.511Z,994.44
2024-01-04T03:06:37.228Z,994.50
2024-01-04T03:07:37.253Z,994.47
2024-01-04T03:08:37.374Z,994.42
2024-01-04T03:09:37.304Z,994.47
2024-01-04T03:10:37.358Z,994.51
2024-01-04T03:11:37.423Z,994.55
2024-01-04T03:12:37.698Z,994.59
2024-01-04T03:13:37.416Z,994.53
2024-01-04T03:14:37.503Z,994.58
2024-01-04T03:15:37.479Z,994.55
2024-01-04T03:16:37.506Z,994.59
2024-01-04T03:17:37.775Z,994.59
2024-01-04T03:18:37.697Z,994.61
2024-01-04T03:19:37.931Z,994.63
2024-01-04T03:20:37.679Z,994.66
2024-01-04T03:21:37.634Z,994.65
2024-01-04T03:22:37.676Z,994.67
2024-01-04T03:23:37.715Z,994.70
2024-01-04T03:24:37.719Z,994.72
2024-01-04T03:25:37.757Z,994.72
2024-01-04T03:26:38.077Z,994.76
2024-01-04T03:27:37.808Z,994.77
2024-01-04T03:28:37.830Z,994.77
2024-01-04T03:30:37.930Z,994.86
2024-01-04T03:31:37.939Z,994.88
2024-01-04T03:32:38.090Z,994.90
2024-01-04T03:33:38.268Z,994.88
2024-01-04T03:34:38.078Z,994.90
2024-01-04T03:35:38.060Z,994.88
2024-01-04T03:36:38.067Z,994.95
2024-01-04T03:37:38.076Z,994.94
2024-01-04T03:38:38.114Z,994.97
2024-01-04T03:40:38.459Z,994.96
2024-01-04T03:41:38.206Z,994.99
2024-01-04T03:42:38.375Z,995.00
2024-01-04T03:43:38.242Z,994.96
2024-01-04T03:44:38.291Z,994.99
2024-01-04T03:45:38.296Z,995.07
2024-01-04T03:46:38.319Z,995.09
2024-01-04T03:47:38.675Z,995.13
2024-01-04T03:48:38.535Z,995.17
2024-01-04T03:49:38.446Z,995.20
2024-01-04T03:50:38.462Z,995.20
2024-01-04T03:51:38.482Z,995.25
2024-01-04T03:52:38.483Z,995.27
2024-01-04T03:53:38.543Z,995.25
2024-01-04T03:54:38.861Z,995.27
2024-01-04T03:55:38.566Z,995.23
2024-01-04T03:56:38.586Z,995.25
2024-01-04T03:57:38.592Z,995.26
2024-01-04T03:58:38.620Z,995.30
2024-01-04T03:59:38.732Z,995.26
2024-01-04T04:00:38.722Z,995.29
2024-01-04T04:01:39.045Z,995.34
2024-01-04T04:02:38.751Z,995.31
2024-01-04T04:03:38.958Z,995.29
2024-01-04T04:04:38.765Z,995.33
2024-01-04T04:05:38.847Z,995.33
2024-01-04T04:06:39.022Z,995.35
2024-01-04T04:08:39.104Z,995.33
2024-01-04T04:09:39.342Z,995.37
2024-01-04T04:10:38.933Z,995.35
2024-01-04T04:11:39.001Z,995.38
2024-01-04T04:12:38.972Z,995.39
2024-01-04T04:13:39.006Z,995.38
2024-01-04T04:14:39.044Z,995.38
2024-01-04T04:15:39.057Z,995.35
2024-01-04T04:16:39.380Z,995.43
2024-01-04T04:17:39.310Z,995.42
2024-01-04T04:18:39.300Z,995.42
2024-01-04T04:19:39.312Z,995.45
2024-01-04T04:20:39.230Z,995.48
2024-01-04T04:21:39.219Z,995.48
2024-01-04T04:22:39.282Z,995.51
2024-01-04T04:23:39.573Z,995.53
2024-01-04T04:24:39.313Z,995.52
2024-01-04T04:25:39.327Z,995.50
2024-01-04T04:26:39.371Z,995.50
2024-01-04T04:27:39.380Z,995.57
2024-01-04T04:28:39.395Z,995.60
2024-01-04T04:29:39.534Z,995.63
2024-01-04T04:30:39.805Z,995.69
2024-01-04T04:31:39.488Z,995.67
2024-01-04T04:32:39.627Z,995.66
2024-01-04T04:33:39.630Z,995.70
2024-01-04T04:34:39.650Z,995.67
2024-01-04T04:35:47.748Z,995.71
2024-01-04T04:36:39.688Z,995.74
2024-01-04T04:37:39.911Z,995.76
2024-01-04T04:38:39.741Z,995.74
2024-01-04T04:39:39.753Z,995.80
2024-01-04T04:40:39.774Z,995.81
2024-01-04T04:41:39.772Z,995.84
2024-01-04T04:42:39.803Z,995.79
2024-01-04T04:44:40.125Z,995.82
2024-01-04T04:45:39.861Z,995.81
2024-01-04T04:46:39.904Z,995.80
2024-01-04T04:47:40.040Z,995.80
2024-01-04T04:48:40.270Z,995.84
2024-01-04T04:49:40.052Z,995.83
2024-01-04T04:50:40.001Z,995.84
2024-01-04T04:51:40.329Z,995.85
2024-01-04T04:52:40.053Z,995.77
2024-01-04T04:53:40.102Z,995.87
2024-01-04T04:54:40.108Z,995.86
2024-01-04T04:55:40.160Z,995.86
2024-01-04T04:56:40.263Z,995.85
2024-01-04T04:57:40.215Z,995.89
2024-01-04T04:58:40.212Z,995.89
2024-01-04T04:59:40.259Z,995.84
2024-01-04T05:01:40.301Z,995.91
2024-01-04T05:02:40.360Z,995.88
2024-01-04T05:03:40.647Z,995.90
2024-01-04T05:04:40.379Z,995.94
2024-01-04T05:05:40.602Z,995.94
2024-01-04T05:08:40.565Z,995.96
2024-01-04T05:09:40.818Z,995.99
2024-01-04T05:10:40.551Z,996.05
2024-01-04T05:11:40.626Z,996.06
2024-01-04T05:12:40.961Z,995.95
2024-01-04T05:13:40.624Z,995.97
2024-01-04T05:14:40.688Z,996.04
2024-01-04T05:15:40.682Z,996.07
2024-01-04T05:16:40.960Z,996.09
2024-01-04T05:17:40.806Z,996.07
2024-01-04T05:18:40.967Z,996.05
2024-01-04T05:19:40.808Z,996.07
2024-01-04T05:20:40.846Z,996.15
2024-01-04T05:21:40.848Z,996.13
2024-01-04T05:22:40.879Z,996.06
2024-01-04T05:23:41.235Z,996.20
2024-01-04T05:24:40.941Z,996.18
2024-01-04T05:25:42.147Z,996.26
2024-01-04T05:26:41.067Z,996.28
2024-01-04T05:27:41.007Z,996.25
2024-01-04T05:28:41.086Z,996.29
2024-01-04T05:29:41.696Z,996.30
2024-01-04T05:30:41.442Z,996.26
2024-01-04T05:31:41.376Z,996.26
2024-01-04T05:32:41.305Z,996.27
2024-01-04T05:33:41.281Z,996.32
2024-01-04T05:34:41.290Z,996.33
2024-01-04T05:35:41.281Z,996.28
2024-01-04T05:36:41.248Z,996.29
2024-01-04T05:37:41.597Z,996.28
2024-01-04T05:38:41.358Z,996.32
2024-01-04T05:39:41.336Z,996.36
2024-01-04T05:40:41.461Z,996.38
2024-01-04T05:41:41.403Z,996.36
2024-01-04T05:42:41.414Z,996.41
2024-01-04T05:43:41.433Z,996.39
2024-01-04T05:44:41.526Z,996.50
2024-01-04T05:45:41.482Z,996.50
2024-01-04T05:46:41.512Z,996.46
2024-01-04T05:47:41.606Z,996.49
2024-01-04T05:48:41.890Z,996.55
2024-01-04T05:49:41.667Z,996.53
2024-01-04T05:50:41.914Z,996.53
2024-01-04T05:51:43.298Z,996.58
2024-01-04T05:52:41.675Z,996.64
2024-01-04T05:53:41.747Z,996.55
2024-01-04T05:54:41.731Z,996.59
2024-01-04T05:55:41.748Z,996.68
2024-01-04T05:56:41.817Z,996.65
2024-01-04T05:57:41.815Z,996.62
2024-01-04T05:58:41.840Z,996.65
2024-01-04T05:59:41.912Z,996.62
2024-01-04T06:00:42.014Z,996.64
2024-01-04T06:02:42.048Z,996.67
2024-01-04T06:03:42.312Z,996.67
2024-01-04T06:04:41.989Z,996.71
2024-01-04T06:05:42.212Z,996.71
2024-01-04T06:06:42.100Z,996.70
2024-01-04T06:07:42.068Z,996.80
2024-01-04T06:08:42.174Z,996.76
2024-01-04T06:09:42.379Z,996.82
2024-01-04T06:10:42.149Z,996.91
2024-01-04T06:11:42.280Z,996.84
2024-01-04T06:12:42.656Z,996.89
2024-01-04T06:13:42.245Z,996.95
2024-01-04T06:14:42.284Z,996.93
2024-01-04T06:15:42.561Z,996.99
2024-01-04T06:16:42.356Z,996.96
2024-01-04T06:17:42.511Z,997.07
2024-01-04T06:18:42.449Z,997.01
2024-01-04T06:19:42.447Z,997.06
2024-01-04T06:20:42.435Z,997.11
2024-01-04T06:21:42.439Z,997.12
2024-01-04T06:22:42.462Z,997.10
2024-01-04T06:23:42.550Z,997.10
2024-01-04T06:24:42.567Z,997.17
2024-01-04T06:25:42.545Z,997.17
2024-01-04T06:26:42.675Z,997.17
2024-01-04T06:27:42.924Z,997.17
2024-01-04T06:28:42.621Z,997.16
2024-01-04T06:29:42.702Z,997.21
2024-01-04T06:30:42.918Z,997.25
2024-01-04T06:31:42.713Z,997.29
2024-01-04T06:32:42.926Z,997.25
2024-01-04T06:33:42.875Z,997.25
2024-01-04T06:34:43.122Z,997.31
2024-01-04T06:35:42.848Z,997.30
2024-01-04T06:36:42.837Z,997.34
2024-01-04T06:37:42.868Z,997.35
2024-01-04T06:38:42.943Z,997.39
2024-01-04T06:39:42.921Z,997.34
2024-01-04T06:40:42.969Z,997.40
2024-01-04T06:41:44.939Z,997.41
2024-01-04T06:42:43.001Z,997.47
2024-01-04T06:43:43.046Z,997.48
2024-01-04T06:44:47.382Z,997.49
2024-01-04T06:45:43.100Z,997.50
2024-01-04T06:46:43.104Z,997.52
2024-01-04T06:47:43.223Z,997.51
2024-01-04T06:48:43.654Z,997.54
2024-01-04T06:49:43.401Z,997.51
2024-01-04T06:50:43.225Z,997.51
2024-01-04T06:51:43.249Z,997.55
2024-01-04T06:52:43.260Z,997.57
2024-01-04T06:53:43.313Z,997.59
2024-01-04T06:55:43.350Z,997.56
2024-01-04T06:56:43.393Z,997.60
2024-01-04T06:57:43.433Z,997.60
2024-01-04T06:58:43.447Z,997.65
2024-01-04T06:59:43.492Z,997.66
2024-01-04T07:00:43.573Z,997.63
2024-01-04T07:01:43.800Z,997.70
2024-01-04T07:02:43.560Z,997.70
2024-01-04T07:03:43.654Z,997.75
2024-01-04T07:04:43.626Z,997.76
2024-01-04T07:05:43.830Z,997.82
2024-01-04T07:06:43.689Z,997.82
2024-01-04T07:07:43.956Z,997.76
2024-01-04T07:08:43.716Z,997.83
2024-01-04T07:09:43.716Z,997.81
2024-01-04T07:12:43.801Z,997.85
2024-01-04T07:13:44.130Z,997.85
2024-01-04T07:14:43.869Z,997.89
2024-01-04T07:15:43.880Z,997.90
2024-01-04T07:16:43.912Z,997.88
2024-01-04T07:17:44.044Z,997.87
2024-01-04T07:18:44.125Z,997.88
2024-01-04T07:19:44.398Z,997.89
2024-01-04T07:20:44.053Z,997.85
2024-01-04T07:21:44.059Z,997.91
2024-01-04T07:22:44.061Z,997.90
2024-01-04T07:23:44.109Z,997.86
2024-01-04T07:24:44.129Z,997.91
2024-01-04T07:25:44.153Z,997.94
2024-01-04T07:26:44.202Z,997.93
2024-01-04T07:27:45.532Z,997.97
2024-01-04T07:28:44.230Z,997.99
2024-01-04T07:29:44.275Z,997.98
2024-01-04T07:30:44.388Z,998.03
2024-01-04T07:33:44.875Z,998.05
2024-01-04T07:34:50.345Z,998.02
2024-01-04T07:35:44.761Z,998.10
2024-01-04T07:36:44.485Z,998.11
2024-01-04T07:37:44.481Z,998.12
2024-01-04T07:38:44.522Z,998.12
2024-01-04T07:39:44.553Z,998.15
2024-01-04T07:40:44.844Z,998.16
2024-01-04T07:41:45.249Z,998.14
2024-01-04T07:42:44.619Z,998.16
2024-01-04T07:43:44.624Z,998.19
2024-01-04T07:44:53.609Z,998.22
2024-01-04T07:45:45.928Z,998.24
2024-01-04T07:46:45.894Z,998.27
2024-01-04T07:47:49.619Z,998.29
2024-01-04T07:48:47.236Z,998.30
2024-01-04T07:49:45.658Z,998.36
2024-01-04T07:50:45.921Z,998.42
2024-01-04T07:51:44.835Z,998.39
2024-01-04T07:52:44.886Z,998.39
2024-01-04T07:53:44.921Z,998.41
2024-01-04T07:56:45.018Z,998.47
2024-01-04T07:57:45.017Z,998.46
2024-01-04T07:58:45.031Z,998.50
2024-01-04T07:59:45.087Z,998.51
2024-01-04T08:00:45.184Z,998.53
2024-01-04T08:01:45.349Z,998.59
2024-01-04T08:02:45.190Z,998.58
2024-01-04T08:03:45.329Z,998.62
2024-01-04T08:04:45.184Z,998.58
2024-01-04T08:05:45.275Z,998.60
2024-01-04T08:06:45.366Z,998.63
2024-01-04T08:07:45.358Z,998.56
2024-01-04T08:09:45.644Z,998.60
2024-01-04T08:10:45.342Z,998.64
2024-01-04T08:11:45.389Z,998.58
2024-01-04T08:12:45.421Z,998.58
2024-01-04T08:13:45.423Z,998.58
2024-01-04T08:14:45.479Z,998.62
2024-01-04T08:15:45.520Z,998.58
2024-01-04T08:16:45.719Z,998.61
2024-01-04T08:17:45.618Z,998.64
2024-01-04T08:18:45.773Z,998.68
2024-01-04T08:19:45.766Z,998.63
2024-01-04T08:20:45.657Z,998.62
2024-01-04T08:21:45.672Z,998.62
2024-01-04T08:22:46.586Z,998.62
2024-01-04T08:23:45.727Z,998.59
2024-01-04T08:24:45.727Z,998.59
2024-01-04T08:25:45.772Z,998.62
2024-01-04T08:26:45.884Z,998.65
2024-01-04T08:27:45.815Z,998.70
2024-01-04T08:28:45.823Z,998.71
2024-01-04T08:29:46.230Z,998.73
2024-01-04T08:30:46.124Z,998.68
2024-01-04T08:31:45.955Z,998.73
2024-01-04T08:32:46.055Z,998.73
2024-01-04T08:33:46.078Z,998.72
2024-01-04T08:34:46.035Z,998.71
2024-01-04T08:35:46.091Z,998.73
2024-01-04T08:36:46.048Z,998.74
2024-01-04T08:37:46.069Z,998.75
2024-01-04T08:38:46.117Z,998.71
2024-01-04T08:39:46.124Z,998.75
2024-01-04T08:41:46.472Z,998.74
2024-01-04T08:42:46.204Z,998.80
2024-01-04T08:43:46.234Z,998.80
2024-01-04T08:44:46.316Z,998.81
2024-01-04T08:45:46.299Z,998.81
2024-01-04T08:46:46.336Z,998.80
2024-01-04T08:47:46.760Z,998.87
2024-01-04T08:48:46.440Z,998.82
2024-01-04T08:49:46.519Z,998.82
2024-01-04T08:50:46.571Z,998.79
2024-01-04T08:51:46.466Z,998.83
2024-01-04T08:52:46.471Z,998.79
2024-01-04T08:53:46.526Z,998.82
2024-01-04T08:54:46.520Z,998.83
2024-01-04T08:55:46.550Z,998.80
2024-01-04T08:56:46.587Z,998.84
2024-01-04T08:57:46.618Z,998.83
2024-01-04T08:58:46.632Z,998.85
2024-01-04T09:00:46.737Z,998.88
2024-01-04T09:01:46.706Z,998.84
2024-01-04T09:02:46.855Z,998.85
2024-01-04T09:03:46.818Z,998.86
2024-01-04T09:04:46.818Z,998.92
2024-01-04T09:06:47.159Z,998.95
2024-01-04T09:07:46.865Z,998.96
2024-01-04T09:08:46.922Z,998.95
2024-01-04T09:09:46.939Z,998.95
2024-01-04T09:10:46.955Z,998.98
2024-01-04T09:11:46.990Z,999.02
2024-01-04T09:12:47.044Z,999.03
2024-01-04T09:13:47.354Z,999.03
2024-01-04T09:14:47.092Z,999.09
2024-01-04T09:15:47.083Z,999.09
2024-01-04T09:16:47.120Z,999.07
2024-01-04T09:17:47.399Z,999.13
2024-01-04T09:18:47.232Z,999.12
2024-01-04T09:19:47.304Z,999.16
2024-01-04T09:20:47.545Z,999.21
2024-01-04T09:21:47.241Z,999.21
2024-01-04T09:22:47.312Z,999.20
2024-01-04T09:23:47.332Z,999.21
2024-01-04T09:24:47.326Z,999.23
2024-01-04T09:25:47.358Z,999.22
2024-01-04T09:26:47.473Z,999.27
2024-01-04T09:27:47.703Z,999.33
2024-01-04T09:28:47.439Z,999.29
2024-01-04T09:29:47.512Z,999.35
2024-01-04T09:30:47.576Z,999.33
2024-01-04T09:31:47.521Z,999.40
2024-01-04T09:32:47.599Z,999.40
2024-01-04T09:33:47.642Z,999.41
2024-01-04T09:34:47.978Z,999.45
2024-01-04T09:35:47.646Z,999.48
2024-01-04T09:36:47.649Z,999.47
2024-01-04T09:37:47.668Z,999.58
2024-01-04T09:38:47.802Z,999.53
2024-01-04T09:39:47.727Z,999.56
2024-01-04T09:40:47.770Z,999.53
2024-01-04T09:43:47.848Z,999.58
2024-01-04T09:44:47.903Z,999.64
2024-01-04T09:45:47.926Z,999.59
2024-01-04T09:46:47.924Z,999.68
2024-01-04T09:47:48.027Z,999.64
2024-01-04T09:48:48.067Z,999.66
2024-01-04T09:49:48.198Z,999.73
2024-01-04T09:50:48.081Z,999.70
2024-01-04T09:51:48.076Z,999.71
2024-01-04T09:52:48.078Z,999.75
2024-01-04T09:53:48.138Z,999.73
2024-01-04T09:54:48.474Z,999.72
2024-01-04T09:55:48.163Z,999.71
2024-01-04T09:56:48.201Z,999.75
2024-01-04T09:57:48.218Z,999.73
2024-01-04T09:58:48.244Z,999.79
2024-01-04T09:59:48.280Z,999.79
2024-01-04T10:00:48.608Z,999.86
2024-01-04T10:01:48.340Z,999.84
2024-01-04T10:02:48.390Z,999.82
2024-01-04T10:03:48.398Z,999.79
2024-01-04T10:04:48.397Z,999.85
2024-01-04T10:05:48.493Z,999.83
2024-01-04T10:06:48.497Z,999.74
2024-01-04T10:07:48.786Z,999.74
2024-01-04T10:08:48.530Z,999.87
2024-01-04T10:10:48.551Z,999.90
2024-01-04T10:11:48.627Z,999.92
2024-01-04T10:12:48.608Z,999.92
2024-01-04T10:13:48.643Z,999.89
2024-01-04T10:14:48.674Z,999.89
2024-01-04T10:15:48.719Z,999.92
2024-01-04T10:16:48.718Z,999.91
2024-01-04T10:17:49.084Z,999.91
2024-01-04T10:18:48.893Z,999.97
2024-01-04T10:19:48.828Z,1000.02
2024-01-04T10:20:48.840Z,1000.03
2024-01-04T10:21:48.866Z,1000.03
2024-01-04T10:22:48.912Z,1000.03
2024-01-04T10:23:48.924Z,1000.04
2024-01-04T10:24:49.353Z,1000.02
2024-01-04T10:25:48.958Z,1000.03
2024-01-04T10:26:49.103Z,1000.00
2024-01-04T10:27:49.009Z,1000.02
2024-01-04T10:28:49.056Z,1000.00
2024-01-04T10:29:49.096Z,1000.01
2024-01-04T10:30:49.427Z,999.99
2024-01-04T10:31:49.123Z,999.98
2024-01-04T10:32:49.172Z,999.98
2024-01-04T10:33:49.248Z,999.97
2024-01-04T10:34:49.248Z,999.96
2024-01-04T10:35:49.359Z,999.91
2024-01-04T10:36:49.252Z,999.95
2024-01-04T10:37:49.316Z,999.89
2024-01-04T10:38:49.344Z,999.89
2024-01-04T10:39:49.334Z,999.92
2024-01-04T10:40:49.419Z,999.97
2024-01-04T10:41:49.425Z,999.93
2024-01-04T10:42:49.419Z,999.97
2024-01-04T10:43:49.439Z,999.91
2024-01-04T10:44:49.480Z,999.94
2024-01-04T10:45:51.524Z,999.91
2024-01-04T10:46:49.523Z,999.83
2024-01-04T10:47:49.804Z,999.88
2024-01-04T10:48:49.776Z,999.85
2024-01-04T10:49:49.808Z,999.86
2024-01-04T10:50:49.657Z,999.86
2024-01-04T10:51:49.658Z,999.87
2024-01-04T10:52:49.728Z,999.89
2024-01-04T10:53:49.730Z,999.92
2024-01-04T10:54:50.068Z,999.87
2024-01-04T10:55:49.769Z,999.88
2024-01-04T10:56:49.825Z,999.84
2024-01-04T10:57:49.822Z,999.94
2024-01-04T10:58:49.846Z,1000.00
2024-01-04T10:59:49.911Z,999.99
2024-01-04T11:00:50.057Z,1000.03
2024-01-04T11:01:50.229Z,1000.00
2024-01-04T11:02:49.985Z,1000.06
2024-01-04T11:03:50.036Z,1000.07
2024-01-04T11:04:50.099Z,1000.10
2024-01-04T11:05:50.159Z,1000.22
2024-01-04T11:07:50.168Z,1000.08
2024-01-04T11:08:50.455Z,1000.14
2024-01-04T11:09:50.149Z,1000.09
2024-01-04T11:10:50.172Z,1000.14
2024-01-04T11:11:50.248Z,1000.15
2024-01-04T11:12:50.273Z,1000.12
2024-01-04T11:13:50.263Z,1000.10
2024-01-04T11:14:50.416Z,1000.11
2024-01-04T11:15:50.560Z,1000.14
2024-01-04T11:16:50.344Z,1000.12
2024-01-04T11:17:50.484Z,1000.11
2024-01-04T11:18:50.505Z,1000.10
2024-01-04T11:19:50.458Z,1000.05
2024-01-04T11:20:50.454Z,1000.03
2024-01-04T11:21:50.788Z,1000.09
2024-01-04T11:22:50.497Z,1000.09
2024-01-04T11:23:50.548Z,1000.11
2024-01-04T11:24:50.554Z,1000.05
2024-01-04T11:25:50.574Z,1000.09
2024-01-04T11:26:50.666Z,1000.07
2024-01-04T11:27:50.637Z,1000.03
2024-01-04T11:28:50.660Z,1000.04
2024-01-04T11:29:50.733Z,1000.06
2024-01-04T11:30:50.772Z,1000.04
2024-01-04T11:31:50.749Z,1000.02
2024-01-04T11:32:51.145Z,1000.08
2024-01-04T11:33:51.275Z,1000.12
2024-01-04T11:34:50.893Z,1000.09
2024-01-04T11:35:50.873Z,1000.12
2024-01-04T11:36:50.898Z,1000.10
2024-01-04T11:38:50.961Z,1000.14
2024-01-04T11:40:50.998Z,1000.15
2024-01-04T11:41:51.024Z,1000.08
2024-01-04T11:42:51.038Z,1000.05
2024-01-04T11:43:51.076Z,1000.07
2024-01-04T11:44:51.152Z,1000.10
2024-01-04T11:45:51.122Z,1000.10
2024-01-04T11:46:51.411Z,1000.11
2024-01-04T11:47:51.233Z,1000.09
2024-01-04T11:48:51.266Z,1000.14
2024-01-04T11:49:59.174Z,1000.05
2024-01-04T11:50:51.515Z,1000.06
2024-01-04T11:51:51.289Z,1000.12
2024-01-04T11:52:51.354Z,1000.10
2024-01-04T11:53:51.644Z,1000.19
2024-01-04T11:55:51.427Z,1000.14
2024-01-04T11:56:51.457Z,1000.19
2024-01-04T11:57:51.441Z,1000.27
2024-01-04T11:58:51.471Z,1000.19
2024-01-04T11:59:51.545Z,1000.20
2024-01-04T12:00:51.636Z,1000.15
2024-01-04T12:01:51.550Z,1000.14
2024-01-04T12:02:51.647Z,1000.10
2024-01-04T12:03:51.637Z,1000.08
2024-01-04T12:04:51.714Z,1000.10
2024-01-04T12:05:51.870Z,1000.18
2024-01-04T12:06:52.021Z,1000.18
2024-01-04T12:07:51.706Z,1000.20
2024-01-04T12:08:51.745Z,1000.29
2024-01-04T12:09:51.758Z,1000.26
2024-01-04T12:10:51.803Z,1000.28
2024-01-04T12:11:51.857Z,1000.23
2024-01-04T12:12:51.850Z,1000.24
2024-01-04T12:13:52.178Z,1000.20
2024-01-04T12:14:51.930Z,1000.28
2024-01-04T12:15:51.924Z,1000.24
2024-01-04T12:16:51.951Z,1000.24
2024-01-04T12:17:52.104Z,1000.24
2024-01-04T12:18:52.153Z,1000.30
2024-01-04T12:19:52.076Z,1000.29
2024-01-04T12:20:53.182Z,1000.29
2024-01-04T12:21:52.146Z,1000.21
2024-01-04T12:22:52.116Z,1000.24
2024-01-04T12:23:52.169Z,1000.19
2024-01-04T12:24:52.163Z,1000.24
2024-01-04T12:25:52.188Z,1000.22
2024-01-04T12:26:52.529Z,1000.18
2024-01-04T12:27:52.264Z,1000.16
2024-01-04T12:28:52.274Z,1000.17
2024-01-04T12:29:52.301Z,1000.23
2024-01-04T12:30:52.390Z,1000.26
2024-01-04T12:31:52.441Z,1000.26
2024-01-04T12:32:52.765Z,1000.33
2024-01-04T12:33:52.612Z,1000.32
2024-01-04T12:34:52.466Z,1000.28
2024-01-04T12:35:52.489Z,1000.35
2024-01-04T12:36:52.757Z,1000.31
2024-01-04T12:38:52.864Z,1000.32
2024-01-04T12:39:52.562Z,1000.24
2024-01-04T12:40:52.594Z,1000.13
2024-01-04T12:41:52.678Z,1000.23
2024-01-04T12:42:52.740Z,1000.17
2024-01-04T12:43:52.711Z,1000.17
2024-01-04T12:44:52.727Z,1000.09
2024-01-04T12:45:52.718Z,1000.11
2024-01-04T12:46:52.848Z,1000.15
2024-01-04T12:47:52.913Z,1000.20
2024-01-04T12:48:52.900Z,1000.18
2024-01-04T12:49:52.965Z,1000.19
2024-01-04T12:50:52.870Z,1000.18
2024-01-04T12:51:52.896Z,1000.21
2024-01-04T12:52:52.918Z,1000.22
2024-01-04T12:53:52.974Z,1000.26
2024-01-04T12:54:53.228Z,1000.31
2024-01-04T12:56:53.165Z,1000.28
2024-01-04T12:57:53.350Z,1000.27
2024-01-04T12:58:53.072Z,1000.30
2024-01-04T12:59:53.164Z,1000.29
2024-01-04T13:00:53.144Z,1000.31
2024-01-04T13:01:53.148Z,1000.36
2024-01-04T13:02:53.290Z,1000.30
2024-01-04T13:03:53.256Z,1000.29
2024-01-04T13:04:53.235Z,1000.30
2024-01-04T13:05:53.371Z,1000.28
2024-01-04T13:06:53.377Z,1000.30
2024-01-04T13:07:55.154Z,1000.25
2024-01-04T13:08:53.449Z,1000.32
2024-01-04T13:09:53.363Z,1000.31
2024-01-04T13:10:53.708Z,1000.32
2024-01-04T13:11:53.467Z,1000.32
2024-01-04T13:12:53.448Z,1000.31